Time;durP1;ratioP1;P1;durP2;ratioP2;P2;SDS_P1;SDS_P2;PMS_P1;PMS_P2;Temp;Humidity;BMP_temperature;BMP_pressure;BME280_temperature;BME280_humidity;BME280_pressure;Samples;Min_cycle;Max_cycle;Signal;HPM_P1;HPM_P2
2023/11/23 00:00:05;;;;;;;13.33;9.87;;;6.40;99.90;;;;;;5071705;28;20774;-68
2023/11/23 00:02:31;;;;;;;12.37;10.13;;;6.40;99.90;;;;;;5072110;28;20629;-69
2023/11/23 00:04:57;;;;;;;17.13;9.70;;;6.50;99.90;;;;;;5071039;28;20186;-69
2023/11/23 00:07:23;;;;;;;13.17;9.97;;;6.60;99.90;;;;;;5071537;28;20198;-69
2023/11/23 00:09:49;;;;;;;11.47;8.90;;;6.60;99.90;;;;;;5071319;28;20201;-69
2023/11/23 00:12:15;;;;;;;16.97;10.37;;;6.70;99.90;;;;;;5071593;28;20182;-68
2023/11/23 00:14:40;;;;;;;11.93;9.60;;;6.80;99.90;;;;;;5058747;28;20181;-68
2023/11/23 00:17:08;;;;;;;11.93;9.13;;;6.80;1.00;;;;;;5051503;28;20261;-68
2023/11/23 00:19:34;;;;;;;14.43;10.00;;;6.90;99.90;;;;;;5051608;28;20179;-68
2023/11/23 00:21:59;;;;;;;12.10;9.17;;;7.00;99.90;;;;;;5051476;28;20720;-68
2023/11/23 00:24:25;;;;;;;14.00;9.70;;;7.00;1.00;;;;;;5051255;28;20232;-69
2023/11/23 00:26:51;;;;;;;13.67;10.13;;;7.00;99.90;;;;;;5051355;28;20183;-69
2023/11/23 00:29:17;;;;;;;14.63;9.80;;;7.00;99.90;;;;;;5051050;28;20177;-69
2023/11/23 00:31:42;;;;;;;14.87;10.17;;;7.00;99.90;;;;;;5051314;28;20175;-68
2023/11/23 00:34:08;;;;;;;13.60;9.10;;;7.00;99.90;;;;;;5051432;28;20234;-68
2023/11/23 00:36:40;;;;;;;13.70;10.20;;;7.10;99.90;;;;;;5051152;28;20591;-69
2023/11/23 00:39:09;;;;;;;14.30;10.10;;;7.20;78.10;;;;;;5051374;28;20171;-69
2023/11/23 00:41:36;;;;;;;12.53;10.30;;;7.20;1.00;;;;;;5051195;28;20193;-69
2023/11/23 00:44:05;;;;;;;16.70;9.90;;;7.20;99.90;;;;;;5051242;28;20206;-69
2023/11/23 00:46:31;;;;;;;10.97;9.37;;;7.20;99.90;;;;;;5060731;28;20257;-69
2023/11/23 00:48:59;;;;;;;13.57;9.57;;;7.30;99.90;;;;;;5071305;28;20198;-70
2023/11/23 00:51:26;;;;;;;11.83;8.67;;;7.30;99.90;;;;;;5071475;28;20579;-69
2023/11/23 00:53:52;;;;;;;13.53;10.00;;;7.30;99.90;;;;;;5071118;28;20257;-69
2023/11/23 00:56:18;;;;;;;15.37;9.83;;;7.40;99.90;;;;;;5071041;28;20705;-68
2023/11/23 00:58:44;;;;;;;11.73;9.63;;;7.40;1.00;;;;;;5070498;28;20186;-69
2023/11/23 01:01:14;;;;;;;12.60;8.93;;;7.50;99.90;;;;;;5070514;28;20182;-69
2023/11/23 01:03:40;;;;;;;15.20;9.60;;;7.50;99.90;;;;;;5067489;22;20246;-86
2023/11/23 01:06:06;;;;;;;11.83;9.37;;;7.50;1.00;;;;;;5036042;28;20179;-85
2023/11/23 01:08:32;;;;;;;14.97;9.50;;;7.50;99.90;;;;;;5034682;28;20179;-86
2023/11/23 01:10:59;;;;;;;13.80;10.27;;;7.50;99.90;;;;;;5036513;28;20221;-85
2023/11/23 01:13:25;;;;;;;15.27;10.33;;;7.50;1.00;;;;;;5034512;28;20179;-86
2023/11/23 01:15:52;;;;;;;12.23;10.30;;;7.50;1.00;;;;;;5041141;28;20281;-87
2023/11/23 01:18:18;;;;;;;11.83;10.33;;;7.40;1.00;;;;;;5036169;28;20175;-87
2023/11/23 01:20:43;;;;;;;18.27;10.60;;;7.30;28.20;;;;;;5035304;28;20190;-86
2023/11/23 01:23:11;;;;;;;14.60;10.73;;;7.30;99.90;;;;;;5037601;28;20211;-86
2023/11/23 01:25:36;;;;;;;14.33;10.50;;;7.30;99.90;;;;;;5035725;28;20222;-87
2023/11/23 01:28:02;;;;;;;17.57;10.50;;;7.20;99.90;;;;;;5035675;28;20183;-87
2023/11/23 01:30:28;;;;;;;13.37;10.23;;;7.20;99.90;;;;;;5033894;28;20207;-87
2023/11/23 01:32:53;;;;;;;16.67;11.43;;;7.20;99.90;;;;;;5036975;28;20183;-87
2023/11/23 01:35:22;;;;;;;12.57;9.77;;;7.10;99.90;;;;;;5035742;28;20195;-88
2023/11/23 01:37:48;;;;;;;16.30;11.60;;;7.10;99.90;;;;;;5039681;28;20239;-86
2023/11/23 01:40:15;;;;;;;15.70;11.30;;;7.10;99.90;;;;;;5055243;28;20381;-86
2023/11/23 01:42:42;;;;;;;16.73;11.33;;;7.10;99.90;;;;;;5044914;28;20290;-87
2023/11/23 01:45:10;;;;;;;15.73;11.03;;;7.10;99.90;;;;;;5036542;28;20259;-87
2023/11/23 01:47:44;;;;;;;16.90;11.73;;;7.10;99.90;;;;;;5034612;28;20180;-87
2023/11/23 01:50:12;;;;;;;15.10;11.60;;;7.10;99.90;;;;;;5034767;28;20209;-87
2023/11/23 01:52:38;;;;;;;16.70;12.90;;;7.10;99.90;;;;;;5035801;28;20180;-86
2023/11/23 01:55:04;;;;;;;16.83;11.87;;;7.20;99.90;;;;;;5036814;28;20222;-89
2023/11/23 01:57:36;;;;;;;17.27;12.87;;;7.20;99.90;;;;;;5036796;28;20179;-87
2023/11/23 02:00:03;;;;;;;16.57;11.93;;;7.20;99.90;;;;;;5039459;28;20187;-87
2023/11/23 02:02:30;;;;;;;17.83;11.97;;;7.20;99.90;;;;;;5039860;28;20191;-87
2023/11/23 02:04:58;;;;;;;18.97;13.10;;;7.30;99.90;;;;;;5040097;28;20207;-86
2023/11/23 02:07:25;;;;;;;17.27;11.93;;;7.30;99.90;;;;;;5016899;28;20291;-87
2023/11/23 02:09:51;;;;;;;20.43;13.83;;;7.40;99.90;;;;;;5017487;28;20200;-87
2023/11/23 02:12:18;;;;;;;17.77;11.93;;;7.40;99.90;;;;;;5019892;28;20176;-87
2023/11/23 02:14:44;;;;;;;17.70;13.13;;;7.40;99.90;;;;;;5034064;28;20199;-87
2023/11/23 02:17:20;;;;;;;17.33;12.90;;;7.30;99.90;;;;;;5038929;28;20171;-87
2023/11/23 02:19:48;;;;;;;18.97;12.67;;;7.30;99.90;;;;;;5038947;28;20172;-86
2023/11/23 02:22:14;;;;;;;17.47;13.03;;;7.30;99.90;;;;;;5038579;28;20228;-87
2023/11/23 02:24:41;;;;;;;16.97;12.87;;;7.30;99.90;;;;;;5042765;28;20199;-87
2023/11/23 02:27:08;;;;;;;19.03;13.30;;;7.40;99.90;;;;;;5044133;28;20183;-87
2023/11/23 02:29:34;;;;;;;18.00;13.07;;;7.30;99.90;;;;;;5041627;28;20182;-87
2023/11/23 02:32:25;;;;;;;19.83;13.50;;;7.30;99.90;;;;;;5044658;28;20183;-86
2023/11/23 02:34:54;;;;;;;21.50;13.63;;;7.40;99.90;;;;;;5046929;28;20255;-86
2023/11/23 02:37:21;;;;;;;19.27;13.83;;;7.40;99.90;;;;;;5056470;28;20184;-86
2023/11/23 02:42:41;;;;;;;21.23;14.27;;;7.40;99.90;;;;;;5056964;28;20260;-86
2023/11/23 02:45:29;;;;;;;23.17;13.20;;;7.50;99.90;;;;;;5057071;28;20202;-87
2023/11/23 02:48:04;;;;;;;21.20;15.73;;;7.50;99.90;;;;;;5057862;28;20160;-87
2023/11/23 02:50:36;;;;;;;19.73;13.73;;;7.50;99.90;;;;;;5057243;28;20195;-86
2023/11/23 02:53:31;;;;;;;26.37;14.83;;;7.50;99.90;;;;;;5057515;28;20176;-87
2023/11/23 02:55:57;;;;;;;23.77;14.37;;;7.50;99.90;;;;;;5056563;28;20160;-86
2023/11/23 02:58:24;;;;;;;21.60;14.63;;;7.60;99.90;;;;;;5036821;28;20727;-88
2023/11/23 03:00:51;;;;;;;20.03;14.43;;;7.60;99.90;;;;;;5036054;28;20183;-86
2023/11/23 03:03:17;;;;;;;19.80;14.00;;;7.60;99.90;;;;;;5036518;28;20191;-87
2023/11/23 03:05:42;;;;;;;24.70;15.33;;;7.60;99.90;;;;;;5037734;28;20223;-87
2023/11/23 03:08:08;;;;;;;22.30;14.93;;;7.60;99.90;;;;;;5036250;28;20172;-88
2023/11/23 03:10:34;;;;;;;24.00;15.43;;;7.70;99.90;;;;;;5040221;28;20202;-87
2023/11/23 03:13:00;;;;;;;21.53;15.10;;;7.70;99.90;;;;;;5038127;28;20394;-86
2023/11/23 03:15:26;;;;;;;19.87;14.03;;;7.70;99.90;;;;;;5035950;28;20270;-87
2023/11/23 03:17:52;;;;;;;22.43;13.60;;;7.80;99.90;;;;;;5035416;28;20265;-86
2023/11/23 03:20:17;;;;;;;18.43;13.80;;;7.80;99.90;;;;;;5037296;28;20261;-87
2023/11/23 03:22:43;;;;;;;24.03;15.73;;;7.80;99.90;;;;;;5035127;28;20179;-87
2023/11/23 03:25:09;;;;;;;16.43;12.47;;;7.80;99.90;;;;;;5035894;28;20203;-87
2023/11/23 03:27:36;;;;;;;23.70;15.17;;;7.80;99.90;;;;;;5036820;28;20193;-86
2023/11/23 03:30:04;;;;;;;24.80;15.13;;;7.90;99.90;;;;;;5036854;28;20207;-86
2023/11/23 03:32:32;;;;;;;24.13;14.67;;;7.90;99.90;;;;;;5035754;28;20180;-86
2023/11/23 03:34:58;;;;;;;19.73;14.07;;;8.00;99.90;;;;;;5036655;28;20755;-87
2023/11/23 03:37:24;;;;;;;26.70;14.90;;;8.00;99.90;;;;;;5034860;28;20180;-87
2023/11/23 03:39:49;;;;;;;22.90;14.90;;;8.00;99.90;;;;;;5035052;28;20190;-87
2023/11/23 03:42:15;;;;;;;19.17;15.17;;;8.00;99.90;;;;;;5038533;28;20215;-87
2023/11/23 03:44:40;;;;;;;20.17;15.77;;;8.00;99.90;;;;;;5025696;28;20279;-87
2023/11/23 03:47:06;;;;;;;25.70;15.30;;;8.10;99.90;;;;;;5043059;28;20179;-87
2023/11/23 03:49:32;;;;;;;19.60;14.87;;;8.10;99.90;;;;;;5043440;28;20183;-87
2023/11/23 03:51:57;;;;;;;20.23;14.87;;;8.10;99.90;;;;;;5044177;28;20182;-86
2023/11/23 03:54:24;;;;;;;19.60;14.23;;;8.10;99.90;;;;;;5043780;28;20306;-87
2023/11/23 03:56:50;;;;;;;20.87;13.67;;;8.10;99.90;;;;;;5042824;28;20191;-88
2023/11/23 03:59:16;;;;;;;22.13;15.13;;;8.10;99.90;;;;;;5040215;28;20179;-87
2023/11/23 04:01:49;;;;;;;20.57;15.57;;;8.10;99.90;;;;;;5043669;28;20203;-87
2023/11/23 04:04:17;;;;;;;21.90;15.80;;;8.20;99.90;;;;;;5042802;28;20215;-87
2023/11/23 04:06:43;;;;;;;22.07;15.77;;;8.20;99.90;;;;;;5036503;28;20210;-87
2023/11/23 04:09:09;;;;;;;20.43;14.30;;;8.20;99.90;;;;;;5036384;28;20657;-87
2023/11/23 04:11:35;;;;;;;21.07;14.70;;;8.20;99.90;;;;;;5045980;28;20298;-87
2023/11/23 04:14:06;;;;;;;24.03;15.73;;;8.30;99.90;;;;;;5040332;28;20207;-88
2023/11/23 04:16:32;;;;;;;20.23;15.80;;;8.30;99.90;;;;;;5035986;28;20665;-86
2023/11/23 04:18:58;;;;;;;25.93;16.57;;;8.30;99.90;;;;;;5043234;28;20179;-87
2023/11/23 04:21:24;;;;;;;23.17;15.70;;;8.40;99.90;;;;;;5041765;28;20172;-88
2023/11/23 04:23:49;;;;;;;23.20;15.60;;;8.40;99.90;;;;;;5035585;28;20219;-87
2023/11/23 04:26:16;;;;;;;26.60;16.93;;;8.40;99.90;;;;;;5037273;28;20183;-87
2023/11/23 04:28:43;;;;;;;23.23;16.20;;;8.40;99.90;;;;;;5035624;28;20246;-87
2023/11/23 04:31:09;;;;;;;25.83;16.33;;;8.50;99.90;;;;;;5036759;28;20207;-87
2023/11/23 04:33:35;;;;;;;22.67;16.07;;;8.50;99.90;;;;;;5036835;28;20175;-87
2023/11/23 04:36:04;;;;;;;23.10;16.17;;;8.60;99.90;;;;;;5039875;28;20584;-87
2023/11/23 04:38:30;;;;;;;23.97;16.67;;;8.50;99.90;;;;;;5038310;28;20202;-88
2023/11/23 04:40:56;;;;;;;21.73;16.27;;;8.50;99.90;;;;;;5035931;28;20175;-87
2023/11/23 04:43:21;;;;;;;21.90;16.10;;;8.60;99.90;;;;;;5035796;28;20201;-87
2023/11/23 04:45:48;;;;;;;23.67;16.50;;;8.60;99.90;;;;;;5036032;28;20191;-87
2023/11/23 04:48:14;;;;;;;23.33;16.53;;;8.60;99.90;;;;;;5036014;28;20187;-88
2023/11/23 04:50:41;;;;;;;24.43;15.83;;;8.60;99.90;;;;;;5035282;28;20257;-86
2023/11/23 04:53:07;;;;;;;24.53;16.37;;;8.60;99.90;;;;;;5036306;28;20657;-87
2023/11/23 04:55:33;;;;;;;25.23;16.77;;;8.60;99.90;;;;;;5036004;28;20196;-87
2023/11/23 04:57:59;;;;;;;23.67;17.63;;;8.60;99.90;;;;;;5019403;28;20218;-89
2023/11/23 05:00:24;;;;;;;21.03;17.57;;;8.60;99.90;;;;;;5034513;28;20228;-87
2023/11/23 05:02:54;;;;;;;20.53;16.27;;;8.60;99.90;;;;;;5034453;28;20191;-87
2023/11/23 05:05:20;;;;;;;23.63;15.07;;;8.60;99.90;;;;;;5035923;28;20286;-87
2023/11/23 05:07:47;;;;;;;22.87;15.50;;;8.60;99.90;;;;;;5049104;28;20203;-87
2023/11/23 05:10:12;;;;;;;24.00;16.27;;;8.60;99.90;;;;;;5042780;28;20238;-88
2023/11/23 05:12:40;;;;;;;20.43;16.00;;;8.60;99.90;;;;;;5035629;28;20175;-87
2023/11/23 05:15:07;;;;;;;27.90;17.23;;;8.60;99.90;;;;;;5037419;28;20196;-87
2023/11/23 05:17:32;;;;;;;25.40;17.50;;;8.70;99.90;;;;;;5015849;28;20184;-87
2023/11/23 05:19:59;;;;;;;21.00;14.97;;;8.60;99.90;;;;;;5030663;28;20179;-88
2023/11/23 05:22:25;;;;;;;23.27;17.10;;;8.60;99.90;;;;;;5031424;28;20180;-86
2023/11/23 05:24:51;;;;;;;24.63;17.47;;;8.60;99.90;;;;;;5035074;28;20206;-89
2023/11/23 05:27:17;;;;;;;25.93;17.40;;;8.70;99.90;;;;;;5017099;28;20179;-87
2023/11/23 05:29:42;;;;;;;22.40;17.60;;;8.70;99.90;;;;;;5033022;28;20206;-88
2023/11/23 05:32:08;;;;;;;25.80;17.67;;;8.70;99.90;;;;;;5033489;28;20183;-87
2023/11/23 05:34:35;;;;;;;23.53;15.70;;;8.70;99.90;;;;;;5038050;28;20222;-87
2023/11/23 05:37:02;;;;;;;23.57;17.27;;;8.70;99.90;;;;;;5036878;28;20175;-88
2023/11/23 05:39:29;;;;;;;24.13;17.50;;;8.70;99.90;;;;;;5037970;28;20195;-87
2023/11/23 05:41:56;;;;;;;28.17;18.37;;;8.70;99.90;;;;;;5038415;28;20182;-87
2023/11/23 05:44:21;;;;;;;22.37;17.87;;;8.70;99.90;;;;;;5037097;28;20568;-87
2023/11/23 05:46:47;;;;;;;24.33;17.87;;;8.70;99.90;;;;;;5040909;28;20175;-87
2023/11/23 05:49:13;;;;;;;20.03;15.83;;;8.80;99.90;;;;;;5038525;28;20207;-88
2023/11/23 05:51:39;;;;;;;22.47;16.33;;;8.80;99.90;;;;;;5036619;28;20234;-88
2023/11/23 05:54:05;;;;;;;22.87;16.77;;;8.80;99.90;;;;;;5020301;28;20204;-87
2023/11/23 05:56:31;;;;;;;25.30;17.23;;;8.80;99.90;;;;;;5045842;28;20201;-88
2023/11/23 05:58:57;;;;;;;27.00;18.43;;;8.80;99.90;;;;;;5037451;28;20650;-88
2023/11/23 06:01:22;;;;;;;25.30;17.57;;;8.80;99.90;;;;;;5036701;28;20190;-87
2023/11/23 06:03:49;;;;;;;28.17;18.80;;;8.80;99.90;;;;;;5036350;28;20211;-88
2023/11/23 06:06:20;;;;;;;24.57;17.57;;;8.80;99.90;;;;;;5036776;28;20579;-87
2023/11/23 06:08:49;;;;;;;24.50;18.77;;;8.80;99.90;;;;;;5035998;28;20180;-87
2023/11/23 06:11:16;;;;;;;25.57;18.83;;;8.80;99.90;;;;;;5036723;28;20208;-88
2023/11/23 06:13:47;;;;;;;24.17;17.83;;;8.80;99.90;;;;;;5035846;28;20168;-88
2023/11/23 06:16:14;;;;;;;31.00;18.83;;;8.80;99.90;;;;;;5039053;28;20174;-87
2023/11/23 06:18:40;;;;;;;23.83;18.00;;;8.80;99.90;;;;;;5036616;28;20179;-87
2023/11/23 06:21:09;;;;;;;23.73;17.67;;;8.90;99.90;;;;;;5019868;28;20183;-87
2023/11/23 06:23:35;;;;;;;27.70;19.53;;;8.90;99.90;;;;;;5037141;28;20187;-87
2023/11/23 06:26:02;;;;;;;27.80;18.17;;;8.90;99.90;;;;;;5037266;28;20183;-87
2023/11/23 06:28:30;;;;;;;29.27;19.17;;;8.90;99.90;;;;;;5036689;28;20190;-89
2023/11/23 06:30:56;;;;;;;26.00;17.70;;;8.90;99.90;;;;;;5036431;28;20238;-87
2023/11/23 06:33:21;;;;;;;22.87;17.53;;;9.00;99.90;;;;;;5000746;28;20180;-88
2023/11/23 06:35:48;;;;;;;25.23;19.17;;;9.00;99.90;;;;;;5016650;28;20192;-88
2023/11/23 06:38:14;;;;;;;23.47;17.63;;;9.00;99.90;;;;;;5016623;28;20176;-87
2023/11/23 06:40:39;;;;;;;28.07;18.83;;;9.00;99.90;;;;;;5032959;28;20275;-88
2023/11/23 06:43:05;;;;;;;29.30;18.87;;;9.00;99.90;;;;;;5016405;28;20242;-88
2023/11/23 06:45:31;;;;;;;28.63;18.07;;;9.00;99.90;;;;;;5025064;28;20205;-87
2023/11/23 06:47:57;;;;;;;28.70;19.73;;;9.00;99.90;;;;;;5037755;28;20649;-86
2023/11/23 06:50:23;;;;;;;28.07;19.60;;;9.00;99.90;;;;;;5035507;28;20234;-86
2023/11/23 06:52:49;;;;;;;27.03;18.90;;;9.10;99.90;;;;;;5019220;28;20187;-87
2023/11/23 06:55:14;;;;;;;30.20;19.07;;;9.10;99.90;;;;;;5036148;28;20245;-86
2023/11/23 06:57:58;;;;;;;30.50;19.90;;;9.10;99.90;;;;;;5035174;28;20258;-87
2023/11/23 07:00:24;;;;;;;33.73;18.47;;;9.10;99.90;;;;;;5037030;28;20179;-86
2023/11/23 07:02:55;;;;;;;32.50;19.63;;;9.10;99.90;;;;;;5034683;28;20800;-87
2023/11/23 07:05:21;;;;;;;24.00;18.63;;;9.20;99.90;;;;;;5018449;28;20196;-87
2023/11/23 07:07:48;;;;;;;24.23;16.77;;;9.20;99.90;;;;;;5036648;28;20187;-88
2023/11/23 07:10:19;;;;;;;28.17;18.17;;;9.20;99.90;;;;;;5034524;28;20215;-87
2023/11/23 07:12:46;;;;;;;24.53;17.17;;;9.20;99.90;;;;;;5033236;28;20623;-86
2023/11/23 07:15:17;;;;;;;29.57;18.77;;;9.20;99.90;;;;;;5035144;28;20613;-86
2023/11/23 07:17:43;;;;;;;30.00;18.07;;;9.20;99.90;;;;;;5036614;28;20164;-87
2023/11/23 07:20:11;;;;;;;27.20;18.20;;;9.30;99.90;;;;;;5019113;28;20187;-86
2023/11/23 07:22:39;;;;;;;26.40;19.10;;;9.30;99.90;;;;;;5036888;28;20164;-88
2023/11/23 07:25:10;;;;;;;24.63;17.63;;;9.30;99.90;;;;;;5014799;28;20255;-86
2023/11/23 07:27:39;;;;;;;26.30;17.33;;;9.30;99.90;;;;;;5015394;28;20605;-86
2023/11/23 07:30:08;;;;;;;23.53;17.60;;;9.30;99.90;;;;;;5014372;28;20204;-87
2023/11/23 07:32:34;;;;;;;26.87;18.77;;;9.30;99.90;;;;;;5015756;28;20203;-87
2023/11/23 07:35:01;;;;;;;32.70;18.17;;;9.40;99.90;;;;;;5014390;28;20576;-86
2023/11/23 07:37:26;;;;;;;26.20;18.87;;;9.40;99.90;;;;;;5031435;28;20177;-86
2023/11/23 07:39:52;;;;;;;25.27;16.40;;;9.40;99.90;;;;;;5021378;28;20171;-87
2023/11/23 07:42:18;;;;;;;24.10;17.67;;;9.40;99.90;;;;;;5017509;28;20179;-87
2023/11/23 07:44:46;;;;;;;22.03;17.67;;;9.40;99.90;;;;;;5033825;28;20203;-88
2023/11/23 07:47:14;;;;;;;25.00;18.07;;;9.50;99.90;;;;;;5034594;28;20171;-86
2023/11/23 07:49:40;;;;;;;30.77;18.13;;;9.50;99.90;;;;;;5033489;28;20179;-86
2023/11/23 07:52:06;;;;;;;23.93;17.60;;;9.50;99.90;;;;;;5034054;28;20175;-87
2023/11/23 07:54:32;;;;;;;28.30;19.33;;;9.60;99.90;;;;;;5034091;28;20361;-87
2023/11/23 07:56:58;;;;;;;24.93;17.33;;;9.60;99.90;;;;;;5033253;28;20168;-87
2023/11/23 07:59:23;;;;;;;25.53;16.87;;;9.60;99.90;;;;;;5034128;28;20205;-87
2023/11/23 08:01:49;;;;;;;26.47;18.07;;;9.70;99.90;;;;;;5035152;28;20548;-87
2023/11/23 08:04:16;;;;;;;25.27;17.80;;;9.70;99.90;;;;;;5035042;28;20195;-88
2023/11/23 08:06:42;;;;;;;28.30;20.10;;;9.70;99.90;;;;;;5017147;28;20677;-88
2023/11/23 08:09:14;;;;;;;25.87;18.50;;;9.70;99.90;;;;;;5035167;28;20198;-88
2023/11/23 08:11:40;;;;;;;23.20;16.77;;;9.80;99.90;;;;;;5034478;28;20202;-88
2023/11/23 08:14:06;;;;;;;21.83;17.40;;;9.80;99.90;;;;;;5036442;28;20625;-88
2023/11/23 08:16:31;;;;;;;27.17;18.90;;;9.80;99.90;;;;;;5037362;28;20172;-88
2023/11/23 08:18:57;;;;;;;22.57;18.40;;;9.80;99.90;;;;;;5038216;28;20198;-87
2023/11/23 08:21:23;;;;;;;29.33;17.73;;;9.80;99.90;;;;;;5037209;28;20598;-87
2023/11/23 08:23:49;;;;;;;30.13;17.77;;;9.90;99.90;;;;;;5036707;28;20607;-86
2023/11/23 08:26:15;;;;;;;23.03;17.80;;;9.90;99.90;;;;;;5037462;28;20197;-87
2023/11/23 08:28:41;;;;;;;22.13;16.00;;;9.90;99.90;;;;;;5020099;28;20190;-87
2023/11/23 08:31:08;;;;;;;27.40;18.67;;;9.90;99.90;;;;;;5031366;28;20215;-86
2023/11/23 08:33:34;;;;;;;25.57;18.20;;;9.90;99.90;;;;;;5020463;28;20195;-87
2023/11/23 08:36:00;;;;;;;24.57;17.10;;;9.90;99.90;;;;;;5036927;28;20179;-86
2023/11/23 08:38:28;;;;;;;25.37;17.50;;;9.90;99.90;;;;;;5024645;28;20226;-86
2023/11/23 08:40:55;;;;;;;24.93;16.83;;;9.90;99.90;;;;;;5016889;28;20191;-86
2023/11/23 08:43:21;;;;;;;24.30;16.83;;;10.00;99.90;;;;;;5035974;28;20186;-86
2023/11/23 08:45:46;;;;;;;24.07;15.63;;;10.00;99.90;;;;;;5039350;28;20200;-86
2023/11/23 08:48:15;;;;;;;27.03;17.90;;;10.00;99.90;;;;;;5038905;28;20238;-88
2023/11/23 08:50:42;;;;;;;22.83;16.40;;;10.10;99.90;;;;;;5034989;28;20634;-86
2023/11/23 08:53:08;;;;;;;27.57;16.93;;;10.10;99.90;;;;;;5036133;28;20222;-88
2023/11/23 08:55:34;;;;;;;24.87;16.20;;;10.20;99.90;;;;;;5037282;28;20206;-86
2023/11/23 08:57:59;;;;;;;22.20;16.87;;;10.20;99.90;;;;;;5038286;28;20187;-90
2023/11/23 09:00:29;;;;;;;25.03;16.97;;;10.20;99.90;;;;;;5043328;28;20187;-91
2023/11/23 09:02:55;;;;;;;23.60;17.17;;;10.20;99.90;;;;;;5070754;28;20175;-88
2023/11/23 09:05:21;;;;;;;24.00;16.57;;;10.20;99.90;;;;;;5035135;28;20704;-86
2023/11/23 09:07:50;;;;;;;27.57;16.27;;;10.20;99.90;;;;;;5040022;28;20180;-87
2023/11/23 09:10:17;;;;;;;21.83;17.33;;;10.30;99.90;;;;;;5028083;28;20719;-86
2023/11/23 09:12:43;;;;;;;21.20;16.67;;;10.30;99.90;;;;;;5039117;28;20171;-86
2023/11/23 09:15:12;;;;;;;21.53;16.00;;;10.30;99.90;;;;;;5037164;28;20199;-86
2023/11/23 09:17:38;;;;;;;20.27;16.03;;;10.40;99.90;;;;;;5036327;28;20178;-86
2023/11/23 09:20:05;;;;;;;20.70;16.40;;;10.50;99.90;;;;;;5031582;28;20273;-86
2023/11/23 09:22:33;;;;;;;21.53;17.37;;;10.50;99.90;;;;;;5036088;28;20271;-87
2023/11/23 09:24:59;;;;;;;21.83;16.83;;;10.50;99.90;;;;;;5036981;28;20199;-87
2023/11/23 09:27:25;;;;;;;22.47;16.67;;;10.60;99.90;;;;;;5035482;28;20187;-86
2023/11/23 09:29:51;;;;;;;24.67;16.20;;;10.70;99.90;;;;;;5036739;28;20242;-86
2023/11/23 09:32:17;;;;;;;22.50;16.80;;;10.70;99.90;;;;;;5038056;28;20187;-87
2023/11/23 09:34:43;;;;;;;20.73;15.37;;;10.70;99.90;;;;;;5039010;28;20576;-87
2023/11/23 09:37:09;;;;;;;23.97;15.50;;;10.70;99.90;;;;;;5036309;28;20187;-87
2023/11/23 09:39:38;;;;;;;22.27;15.80;;;10.80;99.90;;;;;;5036138;28;20182;-87
2023/11/23 09:42:05;;;;;;;21.10;14.20;;;10.90;99.90;;;;;;5036315;28;20175;-87
2023/11/23 09:44:34;;;;;;;19.30;15.40;;;10.90;99.90;;;;;;5069745;28;20270;-87
2023/11/23 09:47:00;;;;;;;20.80;14.97;;;11.00;99.90;;;;;;5036822;28;20279;-86
2023/11/23 09:49:26;;;;;;;18.57;14.00;;;11.10;99.90;;;;;;5036471;28;20653;-87
2023/11/23 09:52:01;;;;;;;16.57;13.70;;;11.10;99.90;;;;;;5038682;28;20210;-86
2023/11/23 09:54:32;;;;;;;18.53;14.10;;;11.20;99.90;;;;;;5042214;28;20240;-86
2023/11/23 09:56:59;;;;;;;16.97;13.80;;;11.20;99.90;;;;;;5040822;28;20179;-86
2023/11/23 09:59:25;;;;;;;14.50;13.10;;;11.30;99.90;;;;;;5045395;28;20835;-86
2023/11/23 10:01:54;;;;;;;20.70;13.57;;;11.30;99.90;;;;;;5042351;28;20187;-87
2023/11/23 10:04:21;;;;;;;16.87;12.57;;;11.30;99.90;;;;;;5045182;28;20192;-89
2023/11/23 10:06:46;;;;;;;17.37;12.33;;;11.30;99.90;;;;;;5026624;28;20254;-86
2023/11/23 10:09:18;;;;;;;16.17;12.43;;;11.30;99.90;;;;;;5025470;28;20253;-87
2023/11/23 10:11:46;;;;;;;16.17;13.00;;;11.30;99.90;;;;;;5039374;28;20227;-86
2023/11/23 10:14:12;;;;;;;15.80;11.67;;;11.30;99.90;;;;;;5038791;28;20242;-86
2023/11/23 10:16:38;;;;;;;14.43;11.47;;;11.40;99.90;;;;;;5037475;28;20187;-86
2023/11/23 10:19:04;;;;;;;12.60;10.27;;;11.40;99.90;;;;;;5039876;28;20201;-86
2023/11/23 10:21:30;;;;;;;19.23;11.70;;;11.30;99.90;;;;;;5038855;28;20182;-86
2023/11/23 10:24:07;;;;;;;14.87;11.60;;;11.30;99.90;;;;;;5039957;28;20218;-84
2023/11/23 10:26:34;;;;;;;15.07;11.30;;;11.30;99.90;;;;;;5027544;28;20175;-86
2023/11/23 10:29:00;;;;;;;14.20;10.50;;;11.20;99.90;;;;;;5018108;28;20192;-86
2023/11/23 10:31:26;;;;;;;13.97;10.27;;;11.30;99.90;;;;;;5004410;28;20204;-87
2023/11/23 10:33:53;;;;;;;15.03;11.93;;;11.20;99.90;;;;;;5039019;28;20194;-87
2023/11/23 10:36:23;;;;;;;15.97;11.63;;;11.20;99.90;;;;;;5038912;28;20179;-87
2023/11/23 10:38:50;;;;;;;14.83;10.93;;;11.20;99.90;;;;;;5039566;28;20263;-87
2023/11/23 10:41:17;;;;;;;15.30;10.07;;;11.20;99.90;;;;;;5038284;28;20175;-86
2023/11/23 10:43:45;;;;;;;13.83;10.17;;;11.20;99.90;;;;;;5038943;28;20175;-86
2023/11/23 10:46:13;;;;;;;11.47;10.27;;;11.20;99.90;;;;;;5038742;28;20263;-87
2023/11/23 10:48:39;;;;;;;14.87;10.77;;;11.20;99.90;;;;;;5038513;28;20222;-87
2023/11/23 10:51:06;;;;;;;12.63;10.63;;;11.20;99.90;;;;;;5040262;28;20260;-87
2023/11/23 10:53:32;;;;;;;12.07;10.57;;;11.10;99.90;;;;;;5035915;28;20180;-87
2023/11/23 10:56:07;;;;;;;14.70;10.07;;;11.10;99.90;;;;;;5035990;28;20522;-86
2023/11/23 10:58:37;;;;;;;12.43;10.80;;;11.10;99.90;;;;;;5035658;28;20209;-86
2023/11/23 11:01:07;;;;;;;13.80;11.60;;;11.00;99.90;;;;;;5034676;28;20179;-86
2023/11/23 11:03:34;;;;;;;18.73;10.13;;;11.00;99.90;;;;;;5034769;28;20183;-86
2023/11/23 11:06:08;;;;;;;13.83;10.50;;;11.10;99.90;;;;;;5036242;28;20696;-87
2023/11/23 11:08:38;;;;;;;12.60;10.50;;;11.10;99.90;;;;;;5036696;28;20186;-86
2023/11/23 11:11:10;;;;;;;12.30;10.33;;;11.10;99.90;;;;;;5035524;28;20261;-88
2023/11/23 11:13:44;;;;;;;11.57;9.80;;;11.10;99.90;;;;;;5034670;28;20172;-86
2023/11/23 11:16:13;;;;;;;13.77;10.47;;;11.10;99.90;;;;;;5036082;28;20176;-87
2023/11/23 11:18:38;;;;;;;13.83;9.87;;;11.10;99.90;;;;;;5035849;28;20186;-86
2023/11/23 11:21:12;;;;;;;13.57;9.07;;;11.10;99.90;;;;;;5036127;28;20673;-86
2023/11/23 11:23:41;;;;;;;15.30;8.90;;;11.10;99.90;;;;;;5035106;28;20179;-86
2023/11/23 11:26:21;;;;;;;13.07;10.07;;;11.10;99.90;;;;;;5034474;28;20183;-86
2023/11/23 11:29:06;;;;;;;13.37;9.63;;;11.10;99.90;;;;;;5033509;28;20213;-86
2023/11/23 11:31:39;;;;;;;13.97;9.63;;;11.20;99.90;;;;;;5032457;28;20207;-86
2023/11/23 11:34:14;;;;;;;15.13;10.53;;;11.20;99.90;;;;;;5033229;28;20231;-87
2023/11/23 11:36:40;;;;;;;12.23;9.20;;;11.30;99.90;;;;;;5035191;28;20178;-87
2023/11/23 11:39:07;;;;;;;14.73;10.53;;;11.30;99.90;;;;;;5034017;28;20195;-86
2023/11/23 11:41:37;;;;;;;14.87;11.27;;;11.30;99.90;;;;;;5036731;28;20187;-86
2023/11/23 11:44:04;;;;;;;14.17;9.20;;;11.40;99.90;;;;;;5033643;28;20211;-86
2023/11/23 11:46:31;;;;;;;12.27;9.00;;;11.40;99.90;;;;;;5018012;28;20213;-87
2023/11/23 11:48:59;;;;;;;10.70;8.83;;;11.40;99.90;;;;;;5033617;28;20183;-86
2023/11/23 11:51:30;;;;;;;9.90;8.97;;;11.50;99.90;;;;;;5034175;28;20745;-88
2023/11/23 11:53:56;;;;;;;13.43;8.53;;;11.50;99.90;;;;;;5037551;28;20210;-86
2023/11/23 11:56:23;;;;;;;8.70;7.90;;;11.50;99.90;;;;;;5020188;28;20183;-87
2023/11/23 11:58:49;;;;;;;14.40;8.90;;;11.50;99.90;;;;;;5033053;28;20183;-87
2023/11/23 12:01:19;;;;;;;10.23;8.60;;;11.60;99.90;;;;;;5034400;28;20180;-87
2023/11/23 12:03:45;;;;;;;9.23;8.43;;;11.60;99.90;;;;;;5036529;28;20175;-86
2023/11/23 12:06:11;;;;;;;8.93;8.03;;;11.60;99.90;;;;;;5036788;28;20191;-86
2023/11/23 12:08:37;;;;;;;10.17;8.83;;;11.60;99.90;;;;;;5038182;28;20207;-87
2023/11/23 12:11:06;;;;;;;9.77;8.20;;;11.60;99.90;;;;;;5036295;28;20203;-86
2023/11/23 12:13:35;;;;;;;9.13;8.23;;;11.70;99.90;;;;;;5036289;28;20232;-86
2023/11/23 12:16:01;;;;;;;10.53;8.73;;;11.70;99.90;;;;;;5036080;28;20186;-87
2023/11/23 12:18:32;;;;;;;10.77;7.77;;;11.70;99.90;;;;;;5036421;28;20194;-86
2023/11/23 12:20:58;;;;;;;10.87;7.87;;;11.70;99.90;;;;;;5036458;28;20190;-87
2023/11/23 12:23:24;;;;;;;8.87;7.97;;;11.70;99.90;;;;;;5037396;28;20237;-87
2023/11/23 12:25:53;;;;;;;11.33;8.80;;;11.80;99.90;;;;;;5036122;28;20203;-87
2023/11/23 12:28:20;;;;;;;8.40;7.70;;;11.80;99.90;;;;;;5037573;28;20226;-87
2023/11/23 12:30:46;;;;;;;10.83;8.23;;;11.80;99.90;;;;;;5037567;28;20202;-87
2023/11/23 12:33:12;;;;;;;10.83;7.63;;;11.70;99.90;;;;;;5036805;28;20199;-87
2023/11/23 12:35:40;;;;;;;11.67;7.80;;;11.80;99.90;;;;;;5037173;28;20218;-87
2023/11/23 12:38:07;;;;;;;10.70;7.80;;;11.80;99.90;;;;;;5037174;28;20175;-87